sensor_id;sensor_type;location;lat;lon;timestamp;pressure;altitude;pressure_sealevel;temperature;humidity
36524;BME280;66329;46.796;9.824;2023-02-15T00:01:05;85688.43;;;24.28;6.13
36524;BME280;66329;46.796;9.824;2023-02-15T00:03:33;85684.51;;;24.25;6.12
36524;BME280;66329;46.796;9.824;2023-02-15T00:06:00;85683.86;;;24.24;6.11
36524;BME280;66329;46.796;9.824;2023-02-15T00:08:27;85680.25;;;24.26;6.12
36524;BME280;66329;46.796;9.824;2023-02-15T00:11:04;85679.27;;;24.30;6.10
36524;BME280;66329;46.796;9.824;2023-02-15T00:13:31;85679.13;;;24.28;6.06
36524;BME280;66329;46.796;9.824;2023-02-15T00:16:01;85674.98;;;23.78;6.00
36524;BME280;66329;46.796;9.824;2023-02-15T00:18:29;85672.22;;;24.30;6.06
36524;BME280;66329;46.796;9.824;2023-02-15T00:20:56;85672.63;;;24.31;6.06
36524;BME280;66329;46.796;9.824;2023-02-15T00:23:23;85670.33;;;24.28;6.10
36524;BME280;66329;46.796;9.824;2023-02-15T00:25:51;85671.75;;;24.27;6.12
36524;BME280;66329;46.796;9.824;2023-02-15T00:28:18;85672.41;;;24.25;6.12
36524;BME280;66329;46.796;9.824;2023-02-15T00:30:45;85671.70;;;24.30;6.10
36524;BME280;66329;46.796;9.824;2023-02-15T00:33:12;85671.55;;;24.29;6.11
36524;BME280;66329;46.796;9.824;2023-02-15T00:35:39;85671.00;;;24.28;6.12
36524;BME280;66329;46.796;9.824;2023-02-15T00:38:07;85671.24;;;24.31;6.12
36524;BME280;66329;46.796;9.824;2023-02-15T00:40:34;85671.03;;;24.31;6.12
36524;BME280;66329;46.796;9.824;2023-02-15T00:43:01;85670.33;;;24.30;6.13
36524;BME280;66329;46.796;9.824;2023-02-15T00:45:28;85668.41;;;24.73;6.13
36524;BME280;66329;46.796;9.824;2023-02-15T00:47:55;85667.68;;;24.33;6.12
36524;BME280;66329;46.796;9.824;2023-02-15T00:50:22;85662.33;;;24.34;6.08
36524;BME280;66329;46.796;9.824;2023-02-15T00:52:49;85657.92;;;24.33;6.03
36524;BME280;66329;46.796;9.824;2023-02-15T00:55:17;85659.17;;;24.29;6.05
36524;BME280;66329;46.796;9.824;2023-02-15T00:57:44;85655.26;;;24.30;6.10
36524;BME280;66329;46.796;9.824;2023-02-15T01:00:12;85652.16;;;24.28;6.11
36524;BME280;66329;46.796;9.824;2023-02-15T01:00:14;85653.51;;;24.28;6.15
36524;BME280;66329;46.796;9.824;2023-02-15T01:02:42;85649.51;;;24.25;6.14
36524;BME280;66329;46.796;9.824;2023-02-15T01:05:10;85650.12;;;24.22;6.15
36524;BME280;66329;46.796;9.824;2023-02-15T01:07:38;85648.45;;;24.65;6.15
36524;BME280;66329;46.796;9.824;2023-02-15T01:10:06;85646.32;;;24.25;6.13
36524;BME280;66329;46.796;9.824;2023-02-15T01:12:34;85647.69;;;24.20;6.14
36524;BME280;66329;46.796;9.824;2023-02-15T01:15:02;85645.91;;;24.19;6.09
36524;BME280;66329;46.796;9.824;2023-02-15T01:17:31;85642.06;;;24.62;6.09
36524;BME280;66329;46.796;9.824;2023-02-15T01:19:59;85641.41;;;24.16;6.11
36524;BME280;66329;46.796;9.824;2023-02-15T01:22:27;85639.18;;;23.64;6.13
36524;BME280;66329;46.796;9.824;2023-02-15T01:24:55;85637.22;;;24.12;6.14
36524;BME280;66329;46.796;9.824;2023-02-15T01:27:23;85633.68;;;24.13;6.13
36524;BME280;66329;46.796;9.824;2023-02-15T01:29:51;85630.23;;;24.11;6.12
36524;BME280;66329;46.796;9.824;2023-02-15T01:32:20;85632.12;;;24.07;6.11
36524;BME280;66329;46.796;9.824;2023-02-15T01:34:48;85630.59;;;23.57;6.02
36524;BME280;66329;46.796;9.824;2023-02-15T01:37:16;85628.56;;;24.47;5.89
36524;BME280;66329;46.796;9.824;2023-02-15T01:39:44;85629.13;;;24.02;5.90
36524;BME280;66329;46.796;9.824;2023-02-15T01:42:12;85628.59;;;24.06;5.97
36524;BME280;66329;46.796;9.824;2023-02-15T01:44:47;85627.17;;;24.03;5.95
36524;BME280;66329;46.796;9.824;2023-02-15T01:47:18;85624.79;;;24.42;5.94
36524;BME280;66329;46.796;9.824;2023-02-15T01:49:48;85623.10;;;24.01;5.95
36524;BME280;66329;46.796;9.824;2023-02-15T01:52:24;85619.15;;;23.97;5.97
36524;BME280;66329;46.796;9.824;2023-02-15T01:54:53;85616.26;;;23.95;6.04
36524;BME280;66329;46.796;9.824;2023-02-15T01:57:23;85618.00;;;24.02;6.06
36524;BME280;66329;46.796;9.824;2023-02-15T01:59:55;85615.27;;;24.49;5.99
36524;BME280;66329;46.796;9.824;2023-02-15T02:02:24;85613.50;;;24.10;5.93
36524;BME280;66329;46.796;9.824;2023-02-15T02:04:56;85611.92;;;24.11;5.94
36524;BME280;66329;46.796;9.824;2023-02-15T02:07:27;85611.87;;;24.11;5.98
36524;BME280;66329;46.796;9.824;2023-02-15T02:09:56;85609.39;;;24.10;5.92
36524;BME280;66329;46.796;9.824;2023-02-15T02:12:25;85606.64;;;24.16;5.90
36524;BME280;66329;46.796;9.824;2023-02-15T02:14:54;85606.48;;;24.21;5.91
36524;BME280;66329;46.796;9.824;2023-02-15T02:17:31;85602.63;;;24.26;5.86
36524;BME280;66329;46.796;9.824;2023-02-15T02:20:18;85599.28;;;24.21;5.86
36524;BME280;66329;46.796;9.824;2023-02-15T02:23:15;85596.71;;;24.13;5.81
36524;BME280;66329;46.796;9.824;2023-02-15T02:27:18;85598.79;;;24.08;5.88
36524;BME280;66329;46.796;9.824;2023-02-15T02:30:40;85597.65;;;24.26;5.87
36524;BME280;66329;46.796;9.824;2023-02-15T02:33:24;85598.70;;;24.23;5.88
36524;BME280;66329;46.796;9.824;2023-02-15T02:36:00;85595.75;;;23.91;5.82
36524;BME280;66329;46.796;9.824;2023-02-15T02:38:37;85598.71;;;23.97;5.90
36524;BME280;66329;46.796;9.824;2023-02-15T02:41:15;85598.43;;;24.42;5.87
36524;BME280;66329;46.796;9.824;2023-02-15T02:43:49;85599.71;;;24.92;5.80
36524;BME280;66329;46.796;9.824;2023-02-15T02:46:24;85599.92;;;24.01;5.79
36524;BME280;66329;46.796;9.824;2023-02-15T02:48:55;85593.40;;;24.41;5.77
36524;BME280;66329;46.796;9.824;2023-02-15T02:51:23;85589.49;;;24.04;5.79
36524;BME280;66329;46.796;9.824;2023-02-15T02:53:53;85587.54;;;24.15;5.77
36524;BME280;66329;46.796;9.824;2023-02-15T02:56:26;85590.11;;;24.53;5.85
36524;BME280;66329;46.796;9.824;2023-02-15T02:58:59;85592.58;;;24.07;5.82
36524;BME280;66329;46.796;9.824;2023-02-15T03:01:32;85594.63;;;24.11;5.75
36524;BME280;66329;46.796;9.824;2023-02-15T03:04:04;85593.93;;;24.08;5.69
36524;BME280;66329;46.796;9.824;2023-02-15T03:06:38;85595.57;;;24.09;5.73
36524;BME280;66329;46.796;9.824;2023-02-15T03:09:11;85596.32;;;24.49;5.72
36524;BME280;66329;46.796;9.824;2023-02-15T03:11:39;85592.20;;;24.03;5.69
36524;BME280;66329;46.796;9.824;2023-02-15T03:14:07;85590.69;;;23.59;5.62
36524;BME280;66329;46.796;9.824;2023-02-15T03:16:34;85589.12;;;24.49;5.64
36524;BME280;66329;46.796;9.824;2023-02-15T03:19:08;85590.21;;;24.03;5.65
36524;BME280;66329;46.796;9.824;2023-02-15T03:21:39;85591.39;;;24.06;5.59
36524;BME280;66329;46.796;9.824;2023-02-15T03:24:11;85588.90;;;24.49;5.59
36524;BME280;66329;46.796;9.824;2023-02-15T03:26:40;85584.02;;;24.08;5.59
36524;BME280;66329;46.796;9.824;2023-02-15T03:29:11;85586.41;;;24.11;5.56
36524;BME280;66329;46.796;9.824;2023-02-15T03:31:41;85585.18;;;24.11;5.55
36524;BME280;66329;46.796;9.824;2023-02-15T03:34:13;85585.23;;;24.97;5.54
36524;BME280;66329;46.796;9.824;2023-02-15T03:36:45;85587.66;;;24.53;5.60
36524;BME280;66329;46.796;9.824;2023-02-15T03:39:19;85585.69;;;23.62;5.65
36524;BME280;66329;46.796;9.824;2023-02-15T03:41:54;85587.18;;;24.07;5.62
36524;BME280;66329;46.796;9.824;2023-02-15T03:44:28;85586.39;;;24.47;5.59
36524;BME280;66329;46.796;9.824;2023-02-15T03:47:01;85584.72;;;24.03;5.58
36524;BME280;66329;46.796;9.824;2023-02-15T03:49:39;85585.42;;;24.02;5.52
36524;BME280;66329;46.796;9.824;2023-02-15T03:52:09;85585.17;;;24.49;5.60
36524;BME280;66329;46.796;9.824;2023-02-15T03:54:39;85582.00;;;24.07;5.64
36524;BME280;66329;46.796;9.824;2023-02-15T03:57:10;85580.04;;;24.97;5.54
36524;BME280;66329;46.796;9.824;2023-02-15T03:59:38;85581.26;;;24.47;5.54
36524;BME280;66329;46.796;9.824;2023-02-15T04:02:12;85578.78;;;24.47;5.53
36524;BME280;66329;46.796;9.824;2023-02-15T04:04:48;85580.39;;;24.06;5.53
36524;BME280;66329;46.796;9.824;2023-02-15T04:07:15;85580.81;;;24.17;5.58
36524;BME280;66329;46.796;9.824;2023-02-15T04:09:43;85582.53;;;24.16;5.53
36524;BME280;66329;46.796;9.824;2023-02-15T04:12:10;85583.15;;;24.11;5.46
36524;BME280;66329;46.796;9.824;2023-02-15T04:14:37;85585.13;;;24.09;5.48
36524;BME280;66329;46.796;9.824;2023-02-15T04:17:05;85585.71;;;24.09;5.47
36524;BME280;66329;46.796;9.824;2023-02-15T04:19:32;85587.53;;;24.13;5.47
36524;BME280;66329;46.796;9.824;2023-02-15T04:21:59;85588.22;;;24.10;5.42
36524;BME280;66329;46.796;9.824;2023-02-15T04:24:26;85584.80;;;24.09;5.42
36524;BME280;66329;46.796;9.824;2023-02-15T04:26:54;85583.76;;;24.09;5.41
36524;BME280;66329;46.796;9.824;2023-02-15T04:29:23;85584.72;;;24.09;5.42
36524;BME280;66329;46.796;9.824;2023-02-15T04:31:54;85584.41;;;24.13;5.42
36524;BME280;66329;46.796;9.824;2023-02-15T04:34:22;85584.68;;;24.10;5.37
36524;BME280;66329;46.796;9.824;2023-02-15T04:36:49;85584.11;;;24.12;5.39
36524;BME280;66329;46.796;9.824;2023-02-15T04:39:17;85581.69;;;24.13;5.38
36524;BME280;66329;46.796;9.824;2023-02-15T04:41:46;85579.71;;;24.14;5.37
36524;BME280;66329;46.796;9.824;2023-02-15T04:44:13;85578.71;;;24.08;5.38
36524;BME280;66329;46.796;9.824;2023-02-15T04:46:40;85575.16;;;24.10;5.25
36524;BME280;66329;46.796;9.824;2023-02-15T04:49:08;85577.81;;;24.10;5.26
36524;BME280;66329;46.796;9.824;2023-02-15T04:51:35;85574.91;;;24.06;5.35
36524;BME280;66329;46.796;9.824;2023-02-15T04:54:02;85575.31;;;24.06;5.36
36524;BME280;66329;46.796;9.824;2023-02-15T04:56:29;85575.90;;;24.49;5.31
36524;BME280;66329;46.796;9.824;2023-02-15T04:58:57;85574.05;;;24.92;5.30
36524;BME280;66329;46.796;9.824;2023-02-15T05:01:24;85575.94;;;24.35;5.36
36524;BME280;66329;46.796;9.824;2023-02-15T05:03:52;85574.91;;;23.97;5.35
36524;BME280;66329;46.796;9.824;2023-02-15T05:06:19;85572.82;;;23.99;5.33
36524;BME280;66329;46.796;9.824;2023-02-15T05:08:46;85574.55;;;23.56;5.32
36524;BME280;66329;46.796;9.824;2023-02-15T05:11:13;85571.98;;;24.03;5.32
36524;BME280;66329;46.796;9.824;2023-02-15T05:13:40;85569.07;;;23.52;5.26
36524;BME280;66329;46.796;9.824;2023-02-15T05:16:07;85567.39;;;24.49;5.27
36524;BME280;66329;46.796;9.824;2023-02-15T05:18:35;85569.97;;;24.05;5.26
36524;BME280;66329;46.796;9.824;2023-02-15T05:21:02;85568.49;;;24.05;5.28
36524;BME280;66329;46.796;9.824;2023-02-15T05:23:29;85565.58;;;24.04;5.26
36524;BME280;66329;46.796;9.824;2023-02-15T05:25:56;85565.85;;;24.03;5.27
36524;BME280;66329;46.796;9.824;2023-02-15T05:28:25;85561.97;;;24.01;5.24
36524;BME280;66329;46.796;9.824;2023-02-15T05:31:03;85561.77;;;24.03;5.23
36524;BME280;66329;46.796;9.824;2023-02-15T05:33:31;85564.15;;;24.92;5.21
36524;BME280;66329;46.796;9.824;2023-02-15T05:35:59;85562.46;;;23.96;5.22
36524;BME280;66329;46.796;9.824;2023-02-15T05:38:26;85563.62;;;23.99;5.17
36524;BME280;66329;46.796;9.824;2023-02-15T05:40:53;85562.27;;;24.03;5.07
36524;BME280;66329;46.796;9.824;2023-02-15T05:43:21;85561.26;;;24.05;5.13
36524;BME280;66329;46.796;9.824;2023-02-15T05:45:50;85561.65;;;24.48;5.10
36524;BME280;66329;46.796;9.824;2023-02-15T05:48:26;85560.56;;;24.05;5.11
36524;BME280;66329;46.796;9.824;2023-02-15T05:50:58;85560.55;;;24.11;5.12
36524;BME280;66329;46.796;9.824;2023-02-15T05:53:26;85562.31;;;24.12;5.11
36524;BME280;66329;46.796;9.824;2023-02-15T05:55:54;85561.48;;;24.11;5.10
36524;BME280;66329;46.796;9.824;2023-02-15T05:58:22;85560.94;;;24.15;5.15
36524;BME280;66329;46.796;9.824;2023-02-15T06:00:49;85563.43;;;24.15;5.14
36524;BME280;66329;46.796;9.824;2023-02-15T06:03:16;85565.00;;;24.21;5.21
36524;BME280;66329;46.796;9.824;2023-02-15T06:05:43;85563.53;;;24.19;5.34
36524;BME280;66329;46.796;9.824;2023-02-15T06:08:10;85562.10;;;24.21;5.36
36524;BME280;66329;46.796;9.824;2023-02-15T06:10:37;85564.39;;;24.63;5.44
36524;BME280;66329;46.796;9.824;2023-02-15T06:13:05;85562.36;;;24.17;5.56
36524;BME280;66329;46.796;9.824;2023-02-15T06:15:32;85563.01;;;24.16;5.52
36524;BME280;66329;46.796;9.824;2023-02-15T06:17:59;85561.56;;;24.58;5.47
36524;BME280;66329;46.796;9.824;2023-02-15T06:20:26;85563.65;;;23.71;5.50
36524;BME280;66329;46.796;9.824;2023-02-15T06:22:53;85563.92;;;23.74;5.52
36524;BME280;66329;46.796;9.824;2023-02-15T06:25:20;85571.25;;;24.20;5.54
36524;BME280;66329;46.796;9.824;2023-02-15T06:27:47;85573.43;;;24.13;5.92
36524;BME280;66329;46.796;9.824;2023-02-15T06:30:15;85574.97;;;24.21;5.79
36524;BME280;66329;46.796;9.824;2023-02-15T06:32:42;85576.20;;;23.57;6.37
36524;BME280;66329;46.796;9.824;2023-02-15T06:35:10;85581.66;;;23.67;6.13
36524;BME280;66329;46.796;9.824;2023-02-15T06:37:38;85586.49;;;24.22;5.96
36524;BME280;66329;46.796;9.824;2023-02-15T06:40:07;85581.46;;;24.34;5.95
36524;BME280;66329;46.796;9.824;2023-02-15T06:42:35;85580.29;;;24.44;5.92
36524;BME280;66329;46.796;9.824;2023-02-15T06:45:02;85582.57;;;24.19;5.85
36524;BME280;66329;46.796;9.824;2023-02-15T06:47:29;85582.26;;;24.33;5.96
36524;BME280;66329;46.796;9.824;2023-02-15T06:49:56;85585.43;;;24.38;5.87
36524;BME280;66329;46.796;9.824;2023-02-15T06:52:23;85584.42;;;23.90;5.95
36524;BME280;66329;46.796;9.824;2023-02-15T06:54:50;85584.91;;;24.48;5.96
36524;BME280;66329;46.796;9.824;2023-02-15T06:57:17;85584.66;;;24.55;5.98
36524;BME280;66329;46.796;9.824;2023-02-15T06:59:44;85585.91;;;24.55;6.07
36524;BME280;66329;46.796;9.824;2023-02-15T07:02:13;85587.95;;;24.16;6.09
36524;BME280;66329;46.796;9.824;2023-02-15T07:04:41;85584.50;;;24.72;6.19
36524;BME280;66329;46.796;9.824;2023-02-15T07:07:11;85582.31;;;23.88;6.31
36524;BME280;66329;46.796;9.824;2023-02-15T07:09:39;85581.21;;;24.87;6.29
36524;BME280;66329;46.796;9.824;2023-02-15T07:12:07;85584.06;;;24.92;6.42
36524;BME280;66329;46.796;9.824;2023-02-15T07:14:34;85583.38;;;24.95;6.61
36524;BME280;66329;46.796;9.824;2023-02-15T07:17:01;85579.54;;;24.40;6.35
36524;BME280;66329;46.796;9.824;2023-02-15T07:19:29;85576.93;;;24.43;6.22
36524;BME280;66329;46.796;9.824;2023-02-15T07:21:56;85582.75;;;25.02;6.61
36524;BME280;66329;46.796;9.824;2023-02-15T07:24:24;85579.19;;;24.52;6.31
36524;BME280;66329;46.796;9.824;2023-02-15T07:26:51;85575.17;;;25.03;6.63
36524;BME280;66329;46.796;9.824;2023-02-15T07:29:18;85575.59;;;25.04;6.64
36524;BME280;66329;46.796;9.824;2023-02-15T07:31:45;85580.35;;;25.08;6.88
36524;BME280;66329;46.796;9.824;2023-02-15T07:34:13;85579.80;;;24.57;6.92
36524;BME280;66329;46.796;9.824;2023-02-15T07:36:40;85578.88;;;25.50;6.88
36524;BME280;66329;46.796;9.824;2023-02-15T07:39:07;85576.13;;;25.12;6.95
36524;BME280;66329;46.796;9.824;2023-02-15T07:41:39;85574.67;;;25.12;6.92
36524;BME280;66329;46.796;9.824;2023-02-15T07:44:11;85576.80;;;24.62;6.83
36524;BME280;66329;46.796;9.824;2023-02-15T07:46:38;85573.99;;;24.59;6.78
36524;BME280;66329;46.796;9.824;2023-02-15T07:49:05;85572.59;;;24.59;6.78
36524;BME280;66329;46.796;9.824;2023-02-15T07:51:32;85570.90;;;25.10;6.85
36524;BME280;66329;46.796;9.824;2023-02-15T07:53:59;85569.35;;;25.11;6.85
36524;BME280;66329;46.796;9.824;2023-02-15T07:56:27;85569.58;;;25.13;6.96
36524;BME280;66329;46.796;9.824;2023-02-15T07:58:54;85566.34;;;25.15;6.91
36524;BME280;66329;46.796;9.824;2023-02-15T08:01:23;85564.34;;;24.26;7.11
36524;BME280;66329;46.796;9.824;2023-02-15T08:03:51;85559.92;;;24.74;7.10
36524;BME280;66329;46.796;9.824;2023-02-15T08:06:19;85555.76;;;25.24;7.03
36524;BME280;66329;46.796;9.824;2023-02-15T08:08:47;85551.36;;;24.72;6.79
36524;BME280;66329;46.796;9.824;2023-02-15T08:11:17;85549.72;;;24.64;7.17
36524;BME280;66329;46.796;9.824;2023-02-15T08:13:45;85551.07;;;24.61;7.22
36524;BME280;66329;46.796;9.824;2023-02-15T08:16:13;85551.00;;;24.17;7.06
36524;BME280;66329;46.796;9.824;2023-02-15T08:18:40;85550.01;;;24.12;6.86
36524;BME280;66329;46.796;9.824;2023-02-15T08:21:07;85552.12;;;24.69;6.75
36524;BME280;66329;46.796;9.824;2023-02-15T08:23:36;85552.97;;;24.75;6.91
36524;BME280;66329;46.796;9.824;2023-02-15T08:26:04;85551.98;;;24.64;6.84
36524;BME280;66329;46.796;9.824;2023-02-15T08:28:31;85549.04;;;24.77;7.10
36524;BME280;66329;46.796;9.824;2023-02-15T08:31:04;85548.32;;;24.84;7.27
36524;BME280;66329;46.796;9.824;2023-02-15T08:33:32;85545.98;;;24.92;7.42
36524;BME280;66329;46.796;9.824;2023-02-15T08:36:02;85543.50;;;24.35;7.48
36524;BME280;66329;46.796;9.824;2023-02-15T08:38:29;85543.69;;;24.03;7.45
36524;BME280;66329;46.796;9.824;2023-02-15T08:40:57;85542.94;;;24.94;7.32
36524;BME280;66329;46.796;9.824;2023-02-15T08:43:25;85544.18;;;24.99;7.36
36524;BME280;66329;46.796;9.824;2023-02-15T08:45:52;85544.23;;;25.09;7.48
36524;BME280;66329;46.796;9.824;2023-02-15T08:48:20;85546.12;;;24.67;7.48
36524;BME280;66329;46.796;9.824;2023-02-15T08:50:47;85542.61;;;24.31;7.49
36524;BME280;66329;46.796;9.824;2023-02-15T08:53:14;85542.61;;;24.41;7.42
36524;BME280;66329;46.796;9.824;2023-02-15T08:55:46;85540.34;;;24.45;7.25
36524;BME280;66329;46.796;9.824;2023-02-15T08:58:13;85539.10;;;24.80;7.25
36524;BME280;66329;46.796;9.824;2023-02-15T09:00:41;85541.45;;;23.89;7.41
36524;BME280;66329;46.796;9.824;2023-02-15T09:03:16;85539.55;;;24.90;7.82
36524;BME280;66329;46.796;9.824;2023-02-15T09:05:44;85539.83;;;24.96;7.74
36524;BME280;66329;46.796;9.824;2023-02-15T09:08:11;85538.17;;;24.51;7.67
36524;BME280;66329;46.796;9.824;2023-02-15T09:10:38;85537.91;;;25.11;7.59
36524;BME280;66329;46.796;9.824;2023-02-15T09:13:05;85529.98;;;24.12;6.92
36524;BME280;66329;46.796;9.824;2023-02-15T09:15:32;85528.53;;;25.01;7.07
36524;BME280;66329;46.796;9.824;2023-02-15T09:18:00;85527.47;;;24.89;7.41
36524;BME280;66329;46.796;9.824;2023-02-15T09:20:27;85524.97;;;24.90;7.40
36524;BME280;66329;46.796;9.824;2023-02-15T09:22:54;85524.98;;;24.42;7.43
36524;BME280;66329;46.796;9.824;2023-02-15T09:25:21;85526.29;;;24.06;7.48
36524;BME280;66329;46.796;9.824;2023-02-15T09:27:54;85527.97;;;24.23;7.55
36524;BME280;66329;46.796;9.824;2023-02-15T09:30:22;85526.41;;;24.71;7.61
36524;BME280;66329;46.796;9.824;2023-02-15T09:32:50;85526.47;;;25.22;7.49
36524;BME280;66329;46.796;9.824;2023-02-15T09:35:18;85527.65;;;25.34;7.59
36524;BME280;66329;46.796;9.824;2023-02-15T09:37:45;85527.69;;;24.51;6.85
36524;BME280;66329;46.796;9.824;2023-02-15T09:40:15;85527.03;;;25.19;7.52
36524;BME280;66329;46.796;9.824;2023-02-15T09:43:12;85527.93;;;25.25;7.27
36524;BME280;66329;46.796;9.824;2023-02-15T09:46:04;85525.64;;;25.18;7.25
36524;BME280;66329;46.796;9.824;2023-02-15T09:48:40;85524.17;;;25.20;7.16
36524;BME280;66329;46.796;9.824;2023-02-15T09:51:24;85525.36;;;24.34;7.09
36524;BME280;66329;46.796;9.824;2023-02-15T09:54:03;85525.23;;;24.77;6.80
36524;BME280;66329;46.796;9.824;2023-02-15T09:56:38;85521.85;;;25.08;6.48
36524;BME280;66329;46.796;9.824;2023-02-15T09:59:15;85521.49;;;24.21;7.21
36524;BME280;66329;46.796;9.824;2023-02-15T10:01:53;85520.95;;;25.27;7.24
36524;BME280;66329;46.796;9.824;2023-02-15T10:04:39;85517.76;;;24.70;7.47
36524;BME280;66329;46.796;9.824;2023-02-15T10:07:19;85516.29;;;25.08;7.16
36524;BME280;66329;46.796;9.824;2023-02-15T10:09:56;85516.24;;;25.11;7.19
36524;BME280;66329;46.796;9.824;2023-02-15T10:12:40;85516.07;;;25.27;7.07
36524;BME280;66329;46.796;9.824;2023-02-15T10:15:21;85517.92;;;24.44;7.32
36524;BME280;66329;46.796;9.824;2023-02-15T10:18:04;85517.30;;;24.42;7.08
36524;BME280;66329;46.796;9.824;2023-02-15T10:20:40;85516.57;;;24.54;7.39
36524;BME280;66329;46.796;9.824;2023-02-15T10:23:24;85512.70;;;24.89;7.62
36524;BME280;66329;46.796;9.824;2023-02-15T10:26:00;85510.13;;;24.58;7.65
36524;BME280;66329;46.796;9.824;2023-02-15T10:28:43;85507.84;;;25.62;7.45
36524;BME280;66329;46.796;9.824;2023-02-15T10:31:21;85506.74;;;24.82;7.24
36524;BME280;66329;46.796;9.824;2023-02-15T10:33:59;85506.37;;;25.75;7.73
36524;BME280;66329;46.796;9.824;2023-02-15T10:36:44;85503.82;;;25.27;7.82
36524;BME280;66329;46.796;9.824;2023-02-15T10:39:23;85500.91;;;24.86;7.77
36524;BME280;66329;46.796;9.824;2023-02-15T10:41:56;85500.46;;;25.86;7.77
36524;BME280;66329;46.796;9.824;2023-02-15T10:44:38;85498.02;;;25.04;7.81
36524;BME280;66329;46.796;9.824;2023-02-15T10:47:26;85492.59;;;25.36;7.09
36524;BME280;66329;46.796;9.824;2023-02-15T10:50:39;85494.24;;;26.17;7.19
36524;BME280;66329;46.796;9.824;2023-02-15T10:53:22;85491.00;;;24.87;7.48
36524;BME280;66329;46.796;9.824;2023-02-15T10:56:34;85488.04;;;24.89;7.69
36524;BME280;66329;46.796;9.824;2023-02-15T10:59:25;85487.00;;;24.82;7.75
36524;BME280;66329;46.796;9.824;2023-02-15T11:02:01;85482.41;;;25.00;7.62
36524;BME280;66329;46.796;9.824;2023-02-15T11:04:39;85481.39;;;25.03;7.58
36524;BME280;66329;46.796;9.824;2023-02-15T11:07:15;85476.02;;;25.08;7.54
36524;BME280;66329;46.796;9.824;2023-02-15T11:09:47;85473.56;;;25.54;7.51
36524;BME280;66329;46.796;9.824;2023-02-15T11:12:18;85469.56;;;24.66;7.05
36524;BME280;66329;46.796;9.824;2023-02-15T11:14:52;85464.26;;;25.06;6.71
36524;BME280;66329;46.796;9.824;2023-02-15T11:17:26;85461.16;;;24.97;6.73
36524;BME280;66329;46.796;9.824;2023-02-15T11:20:02;85459.89;;;25.84;6.63
36524;BME280;66329;46.796;9.824;2023-02-15T11:22:33;85455.54;;;25.29;6.64
36524;BME280;66329;46.796;9.824;2023-02-15T11:25:05;85453.11;;;24.87;6.61
36524;BME280;66329;46.796;9.824;2023-02-15T11:27:42;85447.70;;;25.26;6.58
36524;BME280;66329;46.796;9.824;2023-02-15T11:30:14;85444.80;;;24.82;6.61
36524;BME280;66329;46.796;9.824;2023-02-15T11:32:45;85441.29;;;24.83;6.53
36524;BME280;66329;46.796;9.824;2023-02-15T11:35:22;85439.86;;;25.26;6.53
36524;BME280;66329;46.796;9.824;2023-02-15T11:37:54;85437.90;;;25.70;6.53
36524;BME280;66329;46.796;9.824;2023-02-15T11:40:28;85434.67;;;24.82;6.49
36524;BME280;66329;46.796;9.824;2023-02-15T11:43:00;85432.95;;;25.73;6.45
36524;BME280;66329;46.796;9.824;2023-02-15T11:45:31;85431.25;;;25.67;6.45
36524;BME280;66329;46.796;9.824;2023-02-15T11:47:59;85428.61;;;24.75;6.42
36524;BME280;66329;46.796;9.824;2023-02-15T11:50:28;85427.61;;;25.66;6.39
36524;BME280;66329;46.796;9.824;2023-02-15T11:52:58;85427.32;;;24.75;6.35
36524;BME280;66329;46.796;9.824;2023-02-15T11:55:27;85424.36;;;24.75;6.37
36524;BME280;66329;46.796;9.824;2023-02-15T11:57:59;85421.33;;;24.78;6.30
36524;BME280;66329;46.796;9.824;2023-02-15T12:00:35;85418.19;;;25.64;6.34
36524;BME280;66329;46.796;9.824;2023-02-15T12:03:12;85416.00;;;24.62;6.37
36524;BME280;66329;46.796;9.824;2023-02-15T12:05:45;85414.70;;;24.65;6.35
36524;BME280;66329;46.796;9.824;2023-02-15T12:08:17;85414.09;;;24.59;6.31
36524;BME280;66329;46.796;9.824;2023-02-15T12:10:57;85410.16;;;24.51;6.33
36524;BME280;66329;46.796;9.824;2023-02-15T12:13:25;85407.39;;;24.91;6.50
36524;BME280;66329;46.796;9.824;2023-02-15T12:15:54;85404.16;;;24.87;6.57
36524;BME280;66329;46.796;9.824;2023-02-15T12:18:34;85401.66;;;24.80;6.66
36524;BME280;66329;46.796;9.824;2023-02-15T12:21:06;85399.28;;;25.24;6.85
36524;BME280;66329;46.796;9.824;2023-02-15T12:23:41;85398.37;;;24.74;6.93
36524;BME280;66329;46.796;9.824;2023-02-15T12:26:10;85398.64;;;25.17;6.91
36524;BME280;66329;46.796;9.824;2023-02-15T12:28:40;85395.63;;;24.72;6.89
36524;BME280;66329;46.796;9.824;2023-02-15T12:31:20;85396.53;;;25.23;6.89
36524;BME280;66329;46.796;9.824;2023-02-15T12:33:51;85392.23;;;24.73;6.91
36524;BME280;66329;46.796;9.824;2023-02-15T12:36:21;85391.99;;;25.29;6.85
36524;BME280;66329;46.796;9.824;2023-02-15T12:39:04;85390.77;;;25.27;6.84
36524;BME280;66329;46.796;9.824;2023-02-15T12:41:32;85387.15;;;25.18;6.81
36524;BME280;66329;46.796;9.824;2023-02-15T12:44:06;85384.92;;;24.69;6.79
36524;BME280;66329;46.796;9.824;2023-02-15T12:46:33;85381.86;;;25.18;6.75
36524;BME280;66329;46.796;9.824;2023-02-15T12:49:19;85377.73;;;25.58;6.69
36524;BME280;66329;46.796;9.824;2023-02-15T12:51:49;85377.79;;;25.10;6.72
36524;BME280;66329;46.796;9.824;2023-02-15T12:54:24;85376.19;;;25.10;6.67
36524;BME280;66329;46.796;9.824;2023-02-15T12:56:53;85373.50;;;25.08;6.68
36524;BME280;66329;46.796;9.824;2023-02-15T12:59:21;85373.20;;;25.07;6.66
36524;BME280;66329;46.796;9.824;2023-02-15T13:01:49;85370.95;;;24.56;6.63
36524;BME280;66329;46.796;9.824;2023-02-15T13:04:22;85367.64;;;25.03;6.59
36524;BME280;66329;46.796;9.824;2023-02-15T13:06:53;85366.90;;;24.07;6.58
36524;BME280;66329;46.796;9.824;2023-02-15T13:09:33;85363.46;;;24.99;6.44
36524;BME280;66329;46.796;9.824;2023-02-15T13:12:14;85362.14;;;23.99;6.43
36524;BME280;66329;46.796;9.824;2023-02-15T13:14:44;85363.31;;;24.87;6.52
36524;BME280;66329;46.796;9.824;2023-02-15T13:17:13;85362.63;;;24.44;6.42
36524;BME280;66329;46.796;9.824;2023-02-15T13:19:45;85358.33;;;24.95;6.38
36524;BME280;66329;46.796;9.824;2023-02-15T13:22:15;85357.13;;;24.41;6.37
36524;BME280;66329;46.796;9.824;2023-02-15T13:24:45;85356.15;;;24.95;6.37
36524;BME280;66329;46.796;9.824;2023-02-15T13:27:16;85355.02;;;24.92;6.37
36524;BME280;66329;46.796;9.824;2023-02-15T13:29:46;85356.47;;;24.38;6.37